SLCB/CBB METAR and TAF weather

Enter ICAO airport designator
Station Type Date Time Source
SLCB METAR 2019/02/23 00:00 UTC NOAA

SLCB 230000Z 11006KT 9999 FEW030 FEW033CB 22/06 Q1023


Station Type Date Time Source
SLCB Decoded METAR 2019/02/23 00:00 UTC NOAA

Cochabamba, Bolivia (SLCB) 17-25S 066-11W 2570M
Feb 22, 2019 - 07:00 PM EST / 2019.02.23 0000 UTC
Wind: from the ESE (110 degrees) at 7 MPH (6 KT):0
Visibility: greater than 7 mile(s):0
Sky conditions: mostly clear
Weather: Cumulonimbus clouds observed
Temperature: 71 F (22 C)
Dew Point: 42 F (6 C)
Relative Humidity: 35%
Pressure (altimeter): 30.21 in. Hg (1023 hPa)
ob: SLCB 230000Z 11006KT 9999 FEW030 FEW033CB 22/06 Q1023
cycle: 0

Station Type Date Time Source
SLCB TAF 2019/02/22 18:36 UTC NOAA

TAF TAF SLCB 221600Z 2218/2318 29010KT 9999 SCT030 TX29/2219Z TN12/2310Z
TEMPO 2220/2222 VCTS FEW033CB
BECMG 2302/2304 00000KT SCT027 BKN070
BECMG 2314/2316 30010KT FEW030 SCT070


Example: see airport list